Hub


Voltar

 INFORMAÇÕES METEOROLÓGICAS

METAR FOR GCXO


ADDS - METARS form results

(1258 UTC 26 April 2019)
Data provider http://aviationweather.gov/metar/data/
 
METAR text: GCXO 261230Z 35011KT 300V030 9999 BKN018 15/10 Q1023 NOSIG
Conditions at: GCXO (TENERIFE/LOS ROD, ES) observed 1230 UTC 26 April 2019
Temperature: 15.0°C (59°F)
Dewpoint: 10.0°C (50°F) [RH = 72%]
Pressure (altimeter): 30.21 inches Hg (1023.0 mb)
Winds: from the N (350 degrees) at 13 MPH (11 knots; 5.7 m/s)
Visibility: 6 or more miles (10+ km)
Ceiling: 1800 feet AGL
Clouds: broken clouds at 1800 feet AGL
Weather: no significant weather observed at this time

METAR text: GCXO 261200Z 32011KT 300V030 9999 FEW011 BKN022 15/10 Q1024 NOSIG
Conditions at: GCXO (TENERIFE/LOS ROD, ES) observed 1200 UTC 26 April 2019
Temperature: 15.0°C (59°F)
Dewpoint: 10.0°C (50°F) [RH = 72%]
Pressure (altimeter): 30.24 inches Hg (1024.0 mb)
Winds: from the NW (320 degrees) at 13 MPH (11 knots; 5.7 m/s)
Visibility: 6 or more miles (10+ km)
Ceiling: 2200 feet AGL
Clouds: few clouds at 1100 feet AGL
broken clouds at 2200 feet AGL
Weather: no significant weather observed at this time

Forecast for: GCXO (TENERIFE/LOS ROD, ES)
Text: TAF GCXO 260800Z 2609/2709 33013KT 9999 BKN015 TX19/2614Z TN11/2705Z
Forecast period: 0900 UTC 26 April 2019 to 0900 UTC 27 April 2019
Forecast type: FROM: standard forecast or significant change
Winds: from the NNW (330 degrees) at 15 MPH (13 knots; 6.7 m/s)
Visibility: 6 or more miles 10+ km)
Ceiling: 1500 feet AGL
Clouds: broken clouds at 1500 feet AGL
Weather: no significant weather forecast for this period
Text: PROB30
Forecast period: 0900 to 1100 UTC 26 April 2019
Forecast type: TEMPORARY: The following changes expected for less than half the time period
Visibility: missing
Ceiling: 900 feet AGL
Clouds: broken clouds at 900 feet AGL
Weather: DZ  (moderate drizzle)
Text: TEMPO 2609/2611 DZ BKN009
Forecast period: 1900 UTC 26 April 2019 to 0900 UTC 27 April 2019
Forecast type: TEMPORARY: The following changes expected for less than half the time period
Visibility: 1.86 miles (2.99 km)
Ceiling: 500 feet AGL
Clouds: broken clouds at 500 feet AGL
Weather: BCFG  (patches of fog)


 MAPA DO AEROPORTO


 INFORMAÇÕES DA PISTA

Pista 12 Tamanho da pista 11155 ft Largura da pista 148 ft
Elevação da pista 2060 ft Ranhura da pista 0 ft Proa da pista 111
Pista 30 Tamanho da pista 11155 ft Largura da pista 148 ft
Elevação da pista 2002 ft Ranhura da pista 0 ft Proa da pista 291

 FREQUÊNCIAS DO AEROPORTO

Tipo APP Nome APP Frequência 119.7 MHZ
Tipo ATIS Nome ATIS Frequência 118.575 MHZ
Tipo GND Nome GND Frequência 121.7 MHZ
Tipo TWR Nome TWR Frequência 118.7 MHZ

 AUXÍLIOS DE NAVEGAÇÃO PRÓXIMOS AO AEROPORTO

Tipo VOR-DME Nome Tenerife Norte Frequência 117700 KHZ
Tipo NDB Nome Tenerife Norte Frequência 410 KHZ